Time;durP1;ratioP1;P1;durP2;ratioP2;P2;SDS_P1;SDS_P2;PMS_P1;PMS_P2;Temp;Humidity;BMP_temperature;BMP_pressure;BME280_temperature;BME280_humidity;BME280_pressure;Samples;Min_cycle;Max_cycle;Signal;HPM_P1;HPM_P2
2021/01/30 00:01:31;;;;;;;2.33;0.87;;;8.60;99.90;;;;;;5013172;28;20356;-62
2021/01/30 00:03:57;;;;;;;2.33;1.10;;;8.80;99.90;;;;;;5012496;28;20218;-63
2021/01/30 00:06:24;;;;;;;4.07;0.90;;;8.90;99.90;;;;;;5012967;28;20222;-61
2021/01/30 00:08:50;;;;;;;3.07;1.20;;;9.00;99.90;;;;;;5012940;28;20210;-61
2021/01/30 00:11:16;;;;;;;2.57;1.00;;;8.90;99.90;;;;;;5013252;28;20211;-61
2021/01/30 00:13:43;;;;;;;4.90;1.23;;;9.00;99.90;;;;;;5013181;28;20206;-62
2021/01/30 00:16:09;;;;;;;2.33;1.07;;;9.00;99.90;;;;;;5013520;28;20223;-61
2021/01/30 00:18:35;;;;;;;3.60;1.00;;;9.10;99.90;;;;;;5012891;28;20265;-61
2021/01/30 00:21:02;;;;;;;2.27;0.90;;;9.10;99.90;;;;;;5013791;28;20210;-62
2021/01/30 00:23:28;;;;;;;1.50;0.90;;;9.00;99.90;;;;;;5013462;28;20206;-61
2021/01/30 00:25:54;;;;;;;1.33;0.80;;;9.10;99.90;;;;;;5013354;28;20235;-62
2021/01/30 00:28:20;;;;;;;5.10;1.13;;;9.10;99.90;;;;;;5012984;28;20207;-62
2021/01/30 00:30:47;;;;;;;2.57;0.93;;;9.20;99.90;;;;;;5013816;28;20210;-62
2021/01/30 00:33:13;;;;;;;3.20;0.90;;;9.20;99.90;;;;;;5012436;28;20257;-61
2021/01/30 00:35:39;;;;;;;1.67;0.87;;;9.30;99.90;;;;;;5012969;28;20227;-63
2021/01/30 00:38:06;;;;;;;2.40;1.07;;;9.40;99.90;;;;;;5012300;28;20548;-62
2021/01/30 00:40:33;;;;;;;2.07;1.00;;;9.20;99.90;;;;;;5012383;28;20211;-62
2021/01/30 00:42:59;;;;;;;1.77;0.70;;;9.10;99.90;;;;;;5012514;28;20333;-61
2021/01/30 00:45:27;;;;;;;2.50;0.70;;;9.10;99.90;;;;;;5011109;28;20251;-61
2021/01/30 00:47:55;;;;;;;3.97;1.00;;;9.20;99.90;;;;;;5011967;28;20203;-62
2021/01/30 00:50:21;;;;;;;3.80;0.90;;;9.20;99.90;;;;;;5012173;28;20203;-62
2021/01/30 00:52:47;;;;;;;3.27;0.90;;;9.30;99.90;;;;;;5012096;28;20213;-62
2021/01/30 00:55:17;;;;;;;2.47;0.97;;;9.20;99.90;;;;;;5011916;28;20714;-61
2021/01/30 00:57:43;;;;;;;3.57;1.13;;;9.30;99.90;;;;;;5012143;28;20227;-61
2021/01/30 01:00:14;;;;;;;2.90;0.87;;;9.30;99.90;;;;;;5011981;28;20214;-62
2021/01/30 01:02:40;;;;;;;3.20;0.90;;;9.30;99.90;;;;;;5012085;28;20214;-62
2021/01/30 01:05:09;;;;;;;4.37;0.90;;;9.30;99.90;;;;;;5011753;28;20234;-62
2021/01/30 01:07:36;;;;;;;5.43;1.00;;;9.30;99.90;;;;;;5011296;28;20215;-62
2021/01/30 01:10:02;;;;;;;2.70;1.07;;;9.30;99.90;;;;;;5011268;28;20206;-62
2021/01/30 01:12:28;;;;;;;3.07;1.00;;;9.30;99.90;;;;;;5011373;28;20206;-62
2021/01/30 01:14:54;;;;;;;4.20;0.73;;;9.10;99.90;;;;;;5011081;28;20901;-62
2021/01/30 01:17:20;;;;;;;4.10;0.77;;;9.00;99.90;;;;;;5011354;28;20318;-61
2021/01/30 01:19:47;;;;;;;2.67;0.90;;;8.90;99.90;;;;;;5011342;28;20745;-61
2021/01/30 01:22:14;;;;;;;2.90;0.87;;;9.00;99.90;;;;;;5011232;28;20674;-61
2021/01/30 01:24:40;;;;;;;3.83;0.70;;;8.80;99.90;;;;;;5011024;28;20230;-61
2021/01/30 01:27:06;;;;;;;2.67;0.80;;;8.80;99.90;;;;;;5011095;28;20207;-61
2021/01/30 01:29:32;;;;;;;3.43;1.10;;;8.70;99.90;;;;;;5011127;28;20671;-61
2021/01/30 01:31:58;;;;;;;1.60;0.83;;;8.70;99.90;;;;;;5011447;28;20285;-62
2021/01/30 01:34:28;;;;;;;4.87;1.57;;;8.90;99.90;;;;;;5012577;28;20207;-61
2021/01/30 01:36:55;;;;;;;2.77;1.10;;;8.80;99.90;;;;;;5013857;28;20226;-61
2021/01/30 01:39:23;;;;;;;2.50;0.80;;;8.80;99.90;;;;;;5011698;28;20207;-61
2021/01/30 01:41:58;;;;;;;2.53;0.90;;;8.80;99.90;;;;;;5011233;28;20211;-62
2021/01/30 01:44:24;;;;;;;0.87;0.60;;;8.90;99.90;;;;;;5011109;28;20256;-61
2021/01/30 01:46:53;;;;;;;3.13;1.00;;;9.00;99.90;;;;;;5011344;28;20222;-61
2021/01/30 01:49:27;;;;;;;3.00;0.60;;;9.00;99.90;;;;;;5011016;28;20635;-61
2021/01/30 01:52:05;;;;;;;3.70;1.20;;;9.20;99.90;;;;;;5011433;28;20214;-61
2021/01/30 01:54:34;;;;;;;2.27;0.67;;;9.40;99.90;;;;;;5010892;28;20218;-61
2021/01/30 01:57:07;;;;;;;3.03;0.77;;;9.50;99.90;;;;;;5011780;28;20231;-61
2021/01/30 01:59:34;;;;;;;2.17;1.20;;;9.70;99.90;;;;;;5014486;28;20211;-61
2021/01/30 02:02:00;;;;;;;2.00;0.80;;;9.70;99.90;;;;;;5014441;28;20679;-62
2021/01/30 02:04:26;;;;;;;2.43;0.87;;;9.70;99.90;;;;;;5014257;28;20207;-62
2021/01/30 02:06:52;;;;;;;2.27;0.90;;;9.70;99.90;;;;;;5014207;28;20671;-61
2021/01/30 02:09:23;;;;;;;1.37;0.70;;;9.70;99.90;;;;;;5014519;28;20215;-62
2021/01/30 02:12:00;;;;;;;1.87;0.50;;;9.70;99.90;;;;;;5014640;28;20207;-62
2021/01/30 02:14:27;;;;;;;3.30;0.80;;;9.80;99.90;;;;;;5014033;28;20588;-62
2021/01/30 02:16:59;;;;;;;2.03;0.70;;;9.80;99.90;;;;;;5014164;28;20222;-61
2021/01/30 02:19:58;;;;;;;2.87;1.37;;;9.80;99.90;;;;;;5014083;28;20207;-61
2021/01/30 02:22:53;;;;;;;3.20;1.13;;;9.80;99.90;;;;;;5010995;28;20257;-61
2021/01/30 02:25:42;;;;;;;1.77;0.67;;;9.90;99.90;;;;;;5014220;28;20223;-61
2021/01/30 02:28:21;;;;;;;2.27;0.80;;;9.90;99.90;;;;;;5014659;28;20203;-62
2021/01/30 02:31:06;;;;;;;1.63;0.90;;;9.90;99.90;;;;;;5014552;28;20211;-62
2021/01/30 02:34:11;;;;;;;4.47;0.90;;;9.90;99.90;;;;;;5014356;28;20221;-62
2021/01/30 02:36:46;;;;;;;1.67;0.60;;;9.90;99.90;;;;;;4989713;28;20207;-61
2021/01/30 02:39:17;;;;;;;1.37;0.63;;;9.90;99.90;;;;;;5013996;28;20626;-61
2021/01/30 02:41:50;;;;;;;2.40;0.67;;;9.90;99.90;;;;;;5014033;28;20257;-61
2021/01/30 02:44:18;;;;;;;2.13;0.60;;;9.90;99.90;;;;;;5013968;28;20666;-61
2021/01/30 02:46:50;;;;;;;1.70;0.80;;;9.80;99.90;;;;;;5055455;22;20256;-58
2021/01/30 02:49:20;;;;;;;3.97;1.00;;;9.80;99.90;;;;;;5033498;28;20221;-58
2021/01/30 02:51:54;;;;;;;2.27;0.80;;;9.80;99.90;;;;;;5033583;28;20214;-57
2021/01/30 02:54:21;;;;;;;1.70;0.50;;;9.80;99.90;;;;;;5033649;28;20256;-57
2021/01/30 02:56:49;;;;;;;1.63;0.80;;;9.90;99.90;;;;;;5033143;28;20233;-57
2021/01/30 02:59:19;;;;;;;2.27;0.80;;;9.80;99.90;;;;;;5033322;28;20202;-58
2021/01/30 03:01:46;;;;;;;1.20;0.40;;;9.90;99.90;;;;;;5033268;28;20221;-57
2021/01/30 03:04:15;;;;;;;0.60;0.30;;;9.90;99.90;;;;;;5033027;28;20213;-57
2021/01/30 03:06:49;;;;;;;1.27;0.50;;;10.00;99.90;;;;;;5032900;28;20238;-57
2021/01/30 03:09:23;;;;;;;2.33;0.50;;;10.00;99.90;;;;;;5031825;28;20206;-57
2021/01/30 03:11:59;;;;;;;1.10;0.50;;;10.10;99.90;;;;;;5033039;28;20215;-57
2021/01/30 03:14:28;;;;;;;1.17;0.40;;;10.10;99.90;;;;;;5032582;28;20628;-58
2021/01/30 03:16:56;;;;;;;2.40;0.60;;;10.10;99.90;;;;;;5032659;28;20276;-57
2021/01/30 03:19:26;;;;;;;1.30;0.43;;;10.10;99.90;;;;;;5032562;28;20604;-57
2021/01/30 03:21:58;;;;;;;1.53;0.40;;;10.10;99.90;;;;;;5032446;28;20210;-58
2021/01/30 03:24:26;;;;;;;1.03;0.40;;;10.10;99.90;;;;;;5032643;28;20209;-57
2021/01/30 03:26:53;;;;;;;1.57;0.57;;;10.10;99.90;;;;;;5032500;28;20227;-57
2021/01/30 03:29:20;;;;;;;1.17;0.40;;;10.00;99.90;;;;;;5032340;28;20210;-58
2021/01/30 03:31:47;;;;;;;1.40;0.20;;;10.00;99.90;;;;;;5032519;28;20221;-58
2021/01/30 03:34:14;;;;;;;1.03;0.60;;;10.00;99.90;;;;;;5032155;28;20202;-57
2021/01/30 03:36:41;;;;;;;0.57;0.30;;;10.00;99.90;;;;;;5032420;28;20264;-57
2021/01/30 03:39:10;;;;;;;0.83;0.53;;;9.80;99.90;;;;;;5032271;28;20622;-57
2021/01/30 03:41:37;;;;;;;1.33;0.37;;;9.80;99.90;;;;;;5032392;28;20210;-57
2021/01/30 03:44:03;;;;;;;1.03;0.37;;;9.80;99.90;;;;;;5032117;28;20233;-57
2021/01/30 03:46:29;;;;;;;1.47;0.43;;;9.80;99.90;;;;;;5032122;28;20426;-57
2021/01/30 03:48:55;;;;;;;1.37;0.47;;;9.80;99.90;;;;;;5031983;28;20628;-57
2021/01/30 03:51:21;;;;;;;3.30;0.47;;;9.80;99.90;;;;;;5032266;28;20229;-57
2021/01/30 03:53:48;;;;;;;2.87;0.70;;;9.90;99.90;;;;;;5031922;28;20674;-57
2021/01/30 03:56:15;;;;;;;1.73;1.00;;;9.90;99.90;;;;;;5032134;28;20222;-58
2021/01/30 03:58:43;;;;;;;1.73;0.90;;;9.80;99.90;;;;;;5031773;28;20642;-57
2021/01/30 04:01:10;;;;;;;2.00;0.90;;;9.80;99.90;;;;;;5031892;28;20297;-57
2021/01/30 04:03:36;;;;;;;1.57;0.40;;;9.80;99.90;;;;;;5031643;28;20221;-57
2021/01/30 04:06:02;;;;;;;1.10;0.50;;;9.80;99.90;;;;;;5031911;28;20226;-58
2021/01/30 04:08:28;;;;;;;0.63;0.40;;;9.80;99.90;;;;;;5031730;28;20260;-57
2021/01/30 04:10:55;;;;;;;1.03;0.30;;;9.80;99.90;;;;;;5031743;28;20210;-57
2021/01/30 04:13:21;;;;;;;3.33;0.40;;;9.80;99.90;;;;;;5031591;28;20593;-57
2021/01/30 04:15:48;;;;;;;0.93;0.53;;;9.70;99.90;;;;;;5031698;28;20230;-57
2021/01/30 04:18:14;;;;;;;1.67;0.70;;;9.60;99.90;;;;;;5031303;28;20257;-58
2021/01/30 04:20:41;;;;;;;0.63;0.40;;;9.60;99.90;;;;;;5031860;28;20260;-57
2021/01/30 04:23:08;;;;;;;0.63;0.40;;;9.70;99.90;;;;;;5031583;28;20580;-57
2021/01/30 04:25:34;;;;;;;0.97;0.40;;;9.60;99.90;;;;;;5031315;28;20253;-57
2021/01/30 04:28:01;;;;;;;0.90;0.60;;;9.50;99.90;;;;;;5031281;28;20253;-57
2021/01/30 04:30:30;;;;;;;1.83;0.60;;;9.50;99.90;;;;;;5031765;28;20209;-58
2021/01/30 04:32:56;;;;;;;2.00;0.53;;;9.60;99.90;;;;;;5031227;28;20577;-57
2021/01/30 04:35:26;;;;;;;2.33;0.60;;;9.70;99.90;;;;;;5031200;28;20508;-57
2021/01/30 04:37:52;;;;;;;1.70;0.50;;;9.60;99.90;;;;;;5030979;28;20222;-57
2021/01/30 04:40:23;;;;;;;1.10;0.40;;;9.50;99.90;;;;;;5031368;28;20206;-57
2021/01/30 04:42:54;;;;;;;1.40;0.53;;;9.50;99.90;;;;;;5031393;28;20214;-57
2021/01/30 04:45:34;;;;;;;0.80;0.37;;;9.50;99.90;;;;;;5030802;28;20237;-58
2021/01/30 04:48:06;;;;;;;1.03;0.63;;;9.60;99.90;;;;;;5031176;28;20264;-58
2021/01/30 04:50:37;;;;;;;0.80;0.50;;;9.60;99.90;;;;;;5031114;28;20240;-58
2021/01/30 04:53:08;;;;;;;0.30;0.20;;;9.40;99.90;;;;;;5031121;28;20753;-57
2021/01/30 04:55:55;;;;;;;1.53;0.50;;;9.50;99.90;;;;;;5031253;28;20230;-57
2021/01/30 04:58:33;;;;;;;1.83;0.50;;;9.30;99.90;;;;;;5031084;28;20226;-57
2021/01/30 05:01:15;;;;;;;0.50;0.30;;;9.30;99.90;;;;;;5031135;28;20221;-59
2021/01/30 05:03:57;;;;;;;2.07;0.50;;;9.20;99.90;;;;;;5030788;28;20674;-57
2021/01/30 05:06:34;;;;;;;1.60;0.50;;;9.30;99.90;;;;;;5031167;28;20230;-59
2021/01/30 05:09:04;;;;;;;2.07;0.70;;;9.20;99.90;;;;;;5030807;28;20206;-59
2021/01/30 05:11:32;;;;;;;0.87;0.50;;;9.20;99.90;;;;;;5030742;28;20681;-57
2021/01/30 05:14:04;;;;;;;0.73;0.30;;;9.20;99.90;;;;;;5030700;28;20210;-57
2021/01/30 05:16:36;;;;;;;1.80;0.57;;;9.20;99.90;;;;;;5030740;28;20473;-57
2021/01/30 05:19:07;;;;;;;1.67;0.60;;;9.10;99.90;;;;;;5031161;28;20229;-57
2021/01/30 05:21:40;;;;;;;2.20;0.60;;;9.20;99.90;;;;;;5031056;28;20206;-57
2021/01/30 05:24:10;;;;;;;2.93;0.90;;;9.30;99.90;;;;;;5031020;28;20217;-57
2021/01/30 05:26:46;;;;;;;1.40;0.50;;;9.30;99.90;;;;;;5030956;28;20245;-57
2021/01/30 05:29:17;;;;;;;3.87;1.00;;;9.20;99.90;;;;;;5031045;28;20198;-57
2021/01/30 05:31:52;;;;;;;5.00;1.10;;;9.30;99.90;;;;;;5031344;28;20674;-57
2021/01/30 05:34:23;;;;;;;3.90;0.90;;;9.20;99.90;;;;;;5035031;28;20217;-57
2021/01/30 05:36:55;;;;;;;4.17;0.90;;;9.40;99.90;;;;;;5034626;28;20583;-57
2021/01/30 05:39:46;;;;;;;2.47;0.70;;;9.40;99.90;;;;;;5034547;28;20206;-58
2021/01/30 05:42:21;;;;;;;5.17;1.20;;;9.40;99.90;;;;;;5031960;28;20206;-57
2021/01/30 05:44:53;;;;;;;5.00;1.20;;;9.40;99.90;;;;;;5034309;28;20209;-57
2021/01/30 05:47:25;;;;;;;5.60;0.90;;;9.40;99.90;;;;;;5034635;28;20206;-57
2021/01/30 05:50:14;;;;;;;3.60;1.00;;;9.50;99.90;;;;;;5034142;28;20579;-57
2021/01/30 05:52:41;;;;;;;3.03;1.30;;;9.50;99.90;;;;;;5034380;28;20614;-57
2021/01/30 05:55:24;;;;;;;5.60;1.20;;;9.50;99.90;;;;;;5034054;28;20253;-57
2021/01/30 05:57:51;;;;;;;7.00;1.57;;;9.50;99.90;;;;;;5034031;28;20728;-57
2021/01/30 06:00:19;;;;;;;6.37;1.70;;;9.50;99.90;;;;;;5034053;28;20670;-57
2021/01/30 06:03:01;;;;;;;3.63;1.13;;;9.60;99.90;;;;;;5034261;28;20237;-57
2021/01/30 06:05:31;;;;;;;5.30;2.10;;;9.70;99.90;;;;;;5034047;28;20226;-57
2021/01/30 06:08:10;;;;;;;6.23;1.40;;;9.80;99.90;;;;;;5033837;28;20660;-57
2021/01/30 06:10:36;;;;;;;3.27;1.30;;;9.80;99.90;;;;;;5033994;28;20272;-57
2021/01/30 06:13:11;;;;;;;4.83;1.60;;;9.80;99.90;;;;;;5034720;28;20213;-58
2021/01/30 06:15:39;;;;;;;3.10;1.40;;;9.90;99.90;;;;;;5033994;28;20226;-57
2021/01/30 06:18:27;;;;;;;4.40;1.37;;;10.00;99.90;;;;;;5033728;28;20223;-57
2021/01/30 06:21:05;;;;;;;6.53;1.53;;;9.90;99.90;;;;;;5033747;28;20210;-58
2021/01/30 06:23:31;;;;;;;4.57;1.50;;;9.90;99.90;;;;;;5033822;28;20218;-57
2021/01/30 06:26:10;;;;;;;4.27;1.67;;;9.90;99.90;;;;;;5033577;28;20611;-57
2021/01/30 06:28:40;;;;;;;4.53;1.43;;;9.90;99.90;;;;;;5033795;28;20210;-57
2021/01/30 06:31:15;;;;;;;3.17;1.10;;;9.90;99.90;;;;;;5033719;28;20210;-57
2021/01/30 06:33:49;;;;;;;4.80;1.33;;;9.80;99.90;;;;;;5033484;28;20210;-57
2021/01/30 06:36:20;;;;;;;3.93;1.23;;;9.60;99.90;;;;;;5033581;28;20226;-57
2021/01/30 06:38:50;;;;;;;6.63;1.37;;;9.70;99.90;;;;;;5033410;28;20230;-57
2021/01/30 06:41:22;;;;;;;6.80;1.53;;;9.60;99.90;;;;;;5033584;28;20746;-57
2021/01/30 06:43:52;;;;;;;4.80;1.27;;;9.60;99.90;;;;;;5032228;28;20214;-57
2021/01/30 06:46:22;;;;;;;7.50;1.47;;;9.60;99.90;;;;;;5033198;28;20646;-57
2021/01/30 06:48:50;;;;;;;6.70;1.50;;;9.30;99.90;;;;;;5033058;28;20625;-57
2021/01/30 06:51:31;;;;;;;7.63;1.73;;;9.40;99.90;;;;;;5033092;28;20694;-57
2021/01/30 06:54:17;;;;;;;3.80;1.33;;;9.30;99.90;;;;;;5033039;28;20209;-57
2021/01/30 06:56:44;;;;;;;5.67;2.00;;;9.20;99.90;;;;;;5033203;28;20226;-57
2021/01/30 06:59:15;;;;;;;5.70;1.90;;;9.20;99.90;;;;;;5033044;28;20288;-57
2021/01/30 07:01:45;;;;;;;6.37;2.00;;;9.10;99.90;;;;;;5033072;28;20210;-57
2021/01/30 07:04:46;;;;;;;5.33;1.53;;;9.10;99.90;;;;;;5032808;28;20210;-57
2021/01/30 07:07:21;;;;;;;9.97;1.90;;;9.10;99.90;;;;;;5033123;28;20210;-57
2021/01/30 07:10:06;;;;;;;6.43;1.70;;;9.10;99.90;;;;;;5032864;28;20214;-57
2021/01/30 07:12:37;;;;;;;6.43;1.60;;;9.00;99.90;;;;;;5032851;28;20206;-57
2021/01/30 07:15:15;;;;;;;9.30;1.83;;;9.00;99.90;;;;;;5032501;28;20283;-57
2021/01/30 07:18:18;;;;;;;7.43;1.80;;;9.10;99.90;;;;;;5032758;28;20229;-57
2021/01/30 07:21:05;;;;;;;7.03;2.13;;;9.10;99.90;;;;;;5032646;28;20206;-57
2021/01/30 07:23:41;;;;;;;8.70;1.83;;;9.30;99.90;;;;;;5032388;28;20620;-57
2021/01/30 07:26:14;;;;;;;8.73;2.73;;;9.20;99.90;;;;;;5032886;28;20226;-57
2021/01/30 07:28:43;;;;;;;18.87;6.67;;;9.30;99.90;;;;;;5032548;28;20233;-57
2021/01/30 07:31:14;;;;;;;14.57;4.47;;;9.30;99.90;;;;;;5032526;28;20213;-57
2021/01/30 07:33:49;;;;;;;7.13;2.17;;;9.40;99.90;;;;;;5032426;28;20206;-57
2021/01/30 07:36:21;;;;;;;6.43;1.80;;;9.50;99.90;;;;;;5032683;28;20230;-57
2021/01/30 07:38:52;;;;;;;7.67;2.93;;;9.60;99.90;;;;;;5032369;28;20283;-57
2021/01/30 07:41:25;;;;;;;7.73;2.20;;;9.70;99.90;;;;;;5032404;28;20669;-57
2021/01/30 07:44:01;;;;;;;7.00;2.17;;;9.80;99.90;;;;;;5032592;28;20617;-57
2021/01/30 07:46:31;;;;;;;6.00;1.60;;;9.90;99.90;;;;;;5031997;28;20237;-57
2021/01/30 07:49:02;;;;;;;7.93;1.70;;;10.00;99.90;;;;;;5032247;28;20213;-58
2021/01/30 07:51:34;;;;;;;4.10;1.40;;;9.90;99.90;;;;;;5032210;28;20206;-57
2021/01/30 07:54:01;;;;;;;9.70;2.10;;;10.10;99.90;;;;;;5032144;28;20211;-57
2021/01/30 07:56:40;;;;;;;6.33;1.73;;;10.10;99.90;;;;;;5031575;28;20230;-57
2021/01/30 07:59:20;;;;;;;8.07;1.93;;;10.10;99.90;;;;;;5031874;28;20217;-57
2021/01/30 08:02:05;;;;;;;8.97;2.53;;;10.20;99.90;;;;;;5032132;28;20640;-58
2021/01/30 08:04:54;;;;;;;8.87;2.40;;;10.20;99.90;;;;;;5032071;28;20210;-57
2021/01/30 08:07:33;;;;;;;5.80;2.07;;;10.10;99.90;;;;;;5031696;28;20202;-57
2021/01/30 08:10:04;;;;;;;9.10;2.40;;;10.30;99.90;;;;;;5031761;28;20206;-57
2021/01/30 08:12:47;;;;;;;7.20;2.70;;;10.30;99.90;;;;;;5031794;28;20206;-57
2021/01/30 08:15:22;;;;;;;7.93;2.80;;;10.30;99.90;;;;;;5031282;28;20291;-57
2021/01/30 08:17:59;;;;;;;7.63;2.10;;;10.50;99.90;;;;;;5031311;28;20372;-57
2021/01/30 08:20:38;;;;;;;6.80;2.27;;;10.50;99.90;;;;;;5032178;28;20202;-57
2021/01/30 08:23:18;;;;;;;8.63;2.53;;;10.70;99.90;;;;;;5031616;28;20213;-57
2021/01/30 08:25:49;;;;;;;10.27;2.50;;;10.90;99.90;;;;;;5031257;28;20222;-57
2021/01/30 08:28:20;;;;;;;11.23;3.03;;;11.00;99.90;;;;;;5031382;28;20203;-57
2021/01/30 08:30:52;;;;;;;7.40;2.00;;;11.10;99.90;;;;;;5031956;28;20236;-57
2021/01/30 08:33:19;;;;;;;5.80;2.10;;;11.30;99.90;;;;;;5031550;28;20202;-57
2021/01/30 08:35:52;;;;;;;5.67;1.90;;;11.40;99.90;;;;;;5031049;28;20226;-57
2021/01/30 08:38:33;;;;;;;6.20;2.17;;;11.50;99.90;;;;;;5031007;28;20226;-57
2021/01/30 08:41:08;;;;;;;8.27;3.03;;;11.50;99.90;;;;;;5031548;28;20218;-57
2021/01/30 08:43:39;;;;;;;8.33;2.70;;;11.60;99.90;;;;;;5031282;28;20209;-57
2021/01/30 08:46:24;;;;;;;7.57;1.70;;;11.70;99.90;;;;;;5055453;22;20768;-62
2021/01/30 08:49:23;;;;;;;7.97;1.90;;;11.80;99.90;;;;;;5032115;28;20269;-62
2021/01/30 08:52:10;;;;;;;7.77;2.33;;;11.80;99.90;;;;;;5020037;28;20248;-62
2021/01/30 08:54:39;;;;;;;7.33;2.20;;;12.00;99.90;;;;;;5032813;28;20584;-63
2021/01/30 08:57:27;;;;;;;4.87;2.13;;;12.00;99.90;;;;;;5031649;28;20602;-63
2021/01/30 08:59:54;;;;;;;11.60;2.23;;;12.00;99.90;;;;;;5031580;28;20702;-61
2021/01/30 09:02:54;;;;;;;7.73;2.07;;;12.00;99.90;;;;;;5031649;28;20217;-63
2021/01/30 09:05:40;;;;;;;8.77;2.13;;;12.20;99.90;;;;;;5029432;28;20230;-62
2021/01/30 09:08:35;;;;;;;6.03;1.77;;;12.20;99.90;;;;;;5030566;28;20205;-62
2021/01/30 09:11:34;;;;;;;8.30;2.20;;;12.30;99.90;;;;;;5030914;28;20202;-62
2021/01/30 09:14:05;;;;;;;9.27;2.10;;;12.40;99.90;;;;;;5020539;28;20692;-62
2021/01/30 09:16:43;;;;;;;8.30;1.97;;;12.50;99.90;;;;;;5031136;28;20226;-58
2021/01/30 09:19:15;;;;;;;7.20;2.50;;;12.50;99.90;;;;;;5030992;28;20252;-58
2021/01/30 09:21:57;;;;;;;7.87;2.20;;;12.70;99.90;;;;;;5031059;28;20577;-58
2021/01/30 09:24:55;;;;;;;6.90;2.30;;;12.70;99.90;;;;;;5030665;28;20210;-58
2021/01/30 09:27:26;;;;;;;7.83;2.70;;;12.90;99.90;;;;;;5030785;28;20233;-58
2021/01/30 09:29:54;;;;;;;7.57;2.10;;;13.20;99.90;;;;;;5030926;28;20594;-58
2021/01/30 09:32:28;;;;;;;7.60;2.20;;;13.30;99.90;;;;;;5031062;28;20210;-58
2021/01/30 09:34:58;;;;;;;7.20;2.43;;;13.30;99.90;;;;;;5030849;28;20213;-58
2021/01/30 09:37:37;;;;;;;7.07;2.10;;;13.40;99.90;;;;;;5030951;28;20207;-58
2021/01/30 09:40:07;;;;;;;6.53;2.17;;;13.40;99.90;;;;;;5030935;28;20226;-58
2021/01/30 09:42:33;;;;;;;15.67;3.00;;;13.20;99.90;;;;;;5030709;28;20202;-58
2021/01/30 09:45:06;;;;;;;9.20;2.37;;;13.30;99.90;;;;;;5030793;28;20658;-58
2021/01/30 09:47:34;;;;;;;8.80;2.47;;;13.50;99.90;;;;;;5030890;28;20206;-60
2021/01/30 09:50:02;;;;;;;9.30;2.47;;;13.80;99.90;;;;;;5030600;28;20232;-60
2021/01/30 09:52:29;;;;;;;6.60;2.20;;;13.90;99.60;;;;;;5030789;28;20325;-60
2021/01/30 09:54:57;;;;;;;9.03;2.43;;;14.10;99.20;;;;;;5031842;28;20594;-60
2021/01/30 09:57:26;;;;;;;8.33;2.10;;;14.10;99.30;;;;;;5031333;28;20666;-59
2021/01/30 09:59:56;;;;;;;9.50;2.60;;;14.10;99.30;;;;;;5031396;28;20221;-60
2021/01/30 10:02:24;;;;;;;8.57;2.50;;;14.20;99.40;;;;;;5031670;28;20589;-60
2021/01/30 10:05:03;;;;;;;7.23;2.33;;;14.10;98.90;;;;;;5032010;28;20518;-60
2021/01/30 10:07:29;;;;;;;10.43;2.90;;;13.80;99.20;;;;;;5031519;28;20210;-60
2021/01/30 10:09:56;;;;;;;9.67;2.77;;;13.70;99.30;;;;;;5031197;28;20214;-59
2021/01/30 10:12:23;;;;;;;12.90;3.13;;;13.50;99.40;;;;;;5030960;28;20268;-60
2021/01/30 10:14:52;;;;;;;7.30;2.03;;;13.40;99.60;;;;;;5031088;28;20209;-60
2021/01/30 10:17:22;;;;;;;8.50;2.37;;;13.40;99.40;;;;;;5030759;28;20230;-60
2021/01/30 10:19:57;;;;;;;7.57;2.33;;;13.30;99.60;;;;;;5034226;28;20206;-60
2021/01/30 10:22:32;;;;;;;9.63;2.60;;;13.30;99.70;;;;;;5034333;28;20205;-60
2021/01/30 10:25:01;;;;;;;8.37;2.30;;;13.40;99.80;;;;;;5034207;28;20206;-59
2021/01/30 10:27:30;;;;;;;6.87;2.33;;;13.50;99.40;;;;;;5033990;28;20573;-59
2021/01/30 10:29:57;;;;;;;8.13;2.20;;;13.60;99.40;;;;;;5034052;28;20206;-59
2021/01/30 10:32:36;;;;;;;7.70;2.30;;;13.70;99.50;;;;;;5034111;28;20210;-60
2021/01/30 10:35:05;;;;;;;9.63;2.30;;;13.70;99.30;;;;;;5033994;28;20305;-60
2021/01/30 10:37:38;;;;;;;8.63;2.40;;;13.90;99.40;;;;;;5033763;28;20661;-60
2021/01/30 10:40:08;;;;;;;8.40;2.20;;;14.10;99.40;;;;;;5034367;28;20187;-60
2021/01/30 10:42:37;;;;;;;9.93;3.13;;;14.30;99.10;;;;;;5034237;28;20268;-60
2021/01/30 10:45:13;;;;;;;11.43;2.70;;;14.20;99.60;;;;;;5033760;28;20256;-60
2021/01/30 10:47:40;;;;;;;7.20;2.30;;;14.30;99.40;;;;;;5034302;28;20201;-60
2021/01/30 10:50:09;;;;;;;8.37;2.33;;;14.40;99.90;;;;;;5033841;28;20693;-60
2021/01/30 10:52:36;;;;;;;6.33;2.20;;;14.40;99.90;;;;;;5033680;28;20661;-60
2021/01/30 10:55:24;;;;;;;6.57;2.60;;;14.40;99.90;;;;;;5033990;28;20202;-60
2021/01/30 10:57:51;;;;;;;8.27;2.70;;;14.20;99.90;;;;;;5033590;28;20837;-60
2021/01/30 11:00:25;;;;;;;8.33;2.23;;;14.20;99.90;;;;;;5033486;28;20214;-59
2021/01/30 11:02:52;;;;;;;8.60;2.37;;;13.90;99.90;;;;;;5033868;28;20206;-60
2021/01/30 11:05:29;;;;;;;5.87;2.30;;;13.80;99.90;;;;;;5033794;28;20300;-59
2021/01/30 11:08:00;;;;;;;8.37;2.50;;;13.60;99.90;;;;;;5033554;28;20202;-59
2021/01/30 11:10:41;;;;;;;8.10;2.33;;;13.50;99.90;;;;;;5033494;28;20546;-59
2021/01/30 11:13:23;;;;;;;10.63;2.63;;;13.40;99.90;;;;;;5033542;28;20213;-60
2021/01/30 11:15:49;;;;;;;6.43;2.70;;;13.30;99.90;;;;;;5033349;28;20226;-60
2021/01/30 11:18:31;;;;;;;6.00;1.70;;;13.20;99.90;;;;;;5033101;28;20284;-60
2021/01/30 11:20:59;;;;;;;6.23;1.83;;;13.10;99.90;;;;;;5033284;28;20210;-60
2021/01/30 11:23:50;;;;;;;8.17;1.90;;;13.00;99.90;;;;;;5033191;28;20236;-59
2021/01/30 11:26:34;;;;;;;5.53;2.23;;;12.80;99.90;;;;;;5032985;28;20222;-59
2021/01/30 11:29:02;;;;;;;4.30;1.90;;;12.80;99.90;;;;;;5032700;28;20202;-60
2021/01/30 11:31:29;;;;;;;6.50;2.47;;;12.80;99.90;;;;;;5032235;28;20256;-60
2021/01/30 11:33:57;;;;;;;4.13;1.90;;;12.80;99.90;;;;;;5033057;28;20203;-59
2021/01/30 11:36:24;;;;;;;6.93;2.15;;;12.80;99.90;;;;;;5022956;28;20487;-61
2021/01/30 11:38:57;;;;;;;7.27;2.00;;;12.90;99.90;;;;;;5012566;28;20234;-63
2021/01/30 11:41:24;;;;;;;8.57;2.33;;;12.90;99.90;;;;;;5013382;28;20210;-62
2021/01/30 11:43:50;;;;;;;7.27;2.00;;;13.10;99.90;;;;;;5012523;28;20272;-62
2021/01/30 11:46:17;;;;;;;5.43;1.80;;;13.30;99.90;;;;;;5012326;28;20238;-62
2021/01/30 11:48:43;;;;;;;5.87;1.73;;;13.40;99.90;;;;;;5012804;28;20203;-61
2021/01/30 11:51:19;;;;;;;5.27;1.80;;;13.60;99.90;;;;;;5012609;28;20600;-62
2021/01/30 11:53:45;;;;;;;3.60;1.50;;;13.70;99.90;;;;;;5012715;28;20269;-63
2021/01/30 11:56:12;;;;;;;3.57;1.50;;;13.90;99.90;;;;;;5012577;28;20227;-62
2021/01/30 11:58:38;;;;;;;4.50;1.80;;;14.10;99.90;;;;;;5012240;28;20753;-63
2021/01/30 12:01:04;;;;;;;4.63;1.80;;;14.20;99.90;;;;;;5012457;28;20211;-63
2021/01/30 12:03:31;;;;;;;5.20;1.70;;;14.40;99.90;;;;;;5012472;28;20206;-64
2021/01/30 12:05:58;;;;;;;4.53;1.60;;;14.60;99.90;;;;;;5012880;28;20234;-64
2021/01/30 12:08:25;;;;;;;7.57;1.70;;;14.80;99.90;;;;;;5013046;28;20203;-63
2021/01/30 12:10:52;;;;;;;5.13;2.07;;;15.00;99.90;;;;;;5012892;28;20211;-64
2021/01/30 12:13:20;;;;;;;6.50;1.93;;;15.00;99.90;;;;;;5012233;28;20203;-62
2021/01/30 12:15:46;;;;;;;4.80;1.77;;;15.10;99.90;;;;;;5012181;28;20237;-62
2021/01/30 12:18:15;;;;;;;6.63;2.13;;;15.20;99.90;;;;;;5012395;28;20222;-62
2021/01/30 12:20:42;;;;;;;8.27;1.93;;;15.30;99.90;;;;;;5012139;28;20262;-63
2021/01/30 12:23:09;;;;;;;5.97;1.47;;;15.30;99.90;;;;;;5012181;28;20216;-63
2021/01/30 12:25:35;;;;;;;3.80;1.20;;;15.10;99.90;;;;;;5011346;28;20226;-62
2021/01/30 12:28:05;;;;;;;5.67;1.43;;;15.10;99.90;;;;;;5012042;28;20203;-62
2021/01/30 12:30:34;;;;;;;3.87;1.23;;;15.00;99.90;;;;;;5012281;28;20240;-61
2021/01/30 12:33:01;;;;;;;3.67;1.73;;;15.00;99.50;;;;;;5012516;28;20210;-61
2021/01/30 12:35:29;;;;;;;4.90;1.20;;;14.90;99.80;;;;;;5012023;28;20238;-61
2021/01/30 12:37:56;;;;;;;3.37;1.10;;;14.90;99.90;;;;;;5011754;28;20218;-61
2021/01/30 12:40:25;;;;;;;4.50;1.40;;;14.90;99.90;;;;;;5012085;28;20799;-62
2021/01/30 12:42:51;;;;;;;3.13;1.07;;;14.90;99.90;;;;;;5011953;28;20207;-61
2021/01/30 12:45:18;;;;;;;3.30;1.13;;;14.80;99.60;;;;;;5011526;28;20817;-61
2021/01/30 12:47:45;;;;;;;17.43;15.20;;;14.90;99.90;;;;;;5011775;28;20207;-61
2021/01/30 12:50:13;;;;;;;4.60;1.97;;;14.80;99.60;;;;;;5012385;28;20215;-61
2021/01/30 12:52:40;;;;;;;3.20;0.93;;;14.80;99.90;;;;;;5011402;28;20207;-61
2021/01/30 12:55:07;;;;;;;5.57;1.40;;;14.70;99.90;;;;;;5011606;28;20211;-64
2021/01/30 12:57:33;;;;;;;4.63;1.20;;;14.60;99.90;;;;;;5012184;28;20214;-60
2021/01/30 13:00:00;;;;;;;6.20;1.30;;;14.60;99.90;;;;;;5011536;28;20227;-63
2021/01/30 13:02:26;;;;;;;2.40;1.07;;;14.60;99.90;;;;;;5011529;28;20229;-64
2021/01/30 13:04:53;;;;;;;7.37;1.50;;;14.60;99.90;;;;;;5011351;28;20203;-63
2021/01/30 13:07:19;;;;;;;4.50;1.17;;;14.50;99.90;;;;;;5011406;28;20744;-64
2021/01/30 13:09:45;;;;;;;3.87;1.17;;;14.30;99.90;;;;;;5011519;28;20206;-63
2021/01/30 13:12:11;;;;;;;5.90;1.40;;;14.30;99.90;;;;;;5011559;28;20215;-64
2021/01/30 13:14:38;;;;;;;5.33;1.60;;;14.20;99.90;;;;;;5011355;28;20211;-64
2021/01/30 13:17:04;;;;;;;9.23;2.30;;;14.10;99.90;;;;;;5011498;28;20318;-64